Terminal Aerodrome Forecast
Issued by NWS Paducah, KY

Home | Current Version | Previous Version | Text Only | Print | Product List | Glossary On
Versions: 1 2 3 4 5 6 7 8 9 10 11 12 13 14 15 16 17
985
FTUS43 KPAH 202320
TAFPAH
TAF
KPAH 202320Z 2100/2124 18007KT P6SM -DZ OVC015
     FM210200 18007KT 6SM -DZ OVC025
     FM211100 18009KT 2SM -DZ BR OVC008
     FM211600 19011KT P6SM OVC008=

USA.gov is the U.S. government's official web portal to all federal, state and local government web resources and services.